sensor_id;sensor_type;location;lat;lon;timestamp;P1;durP1;ratioP1;P2;durP2;ratioP2
33188;SDS011;52601;53.070;10.600;2023-08-17T00:02:19;4.03;;;1.60;;
33188;SDS011;52601;53.070;10.600;2023-08-17T00:05:05;7.90;;;2.25;;
33188;SDS011;52601;53.070;10.600;2023-08-17T00:07:54;6.97;;;1.85;;
33188;SDS011;52601;53.070;10.600;2023-08-17T00:10:39;9.32;;;1.92;;
33188;SDS011;52601;53.070;10.600;2023-08-17T00:13:25;5.50;;;1.50;;
33188;SDS011;52601;53.070;10.600;2023-08-17T00:16:10;4.20;;;1.50;;
33188;SDS011;52601;53.070;10.600;2023-08-17T00:18:55;8.83;;;2.10;;
33188;SDS011;52601;53.070;10.600;2023-08-17T00:21:41;4.27;;;1.43;;
33188;SDS011;52601;53.070;10.600;2023-08-17T00:24:27;6.80;;;2.13;;
33188;SDS011;52601;53.070;10.600;2023-08-17T00:27:12;3.55;;;1.50;;
33188;SDS011;52601;53.070;10.600;2023-08-17T00:29:58;4.38;;;1.70;;
33188;SDS011;52601;53.070;10.600;2023-08-17T00:32:43;7.70;;;2.17;;
33188;SDS011;52601;53.070;10.600;2023-08-17T00:35:29;4.13;;;1.37;;
33188;SDS011;52601;53.070;10.600;2023-08-17T00:38:15;3.93;;;1.40;;
33188;SDS011;52601;53.070;10.600;2023-08-17T00:41:00;6.30;;;1.60;;
33188;SDS011;52601;53.070;10.600;2023-08-17T00:43:46;5.95;;;1.58;;
33188;SDS011;52601;53.070;10.600;2023-08-17T00:46:31;4.60;;;1.85;;
33188;SDS011;52601;53.070;10.600;2023-08-17T00:49:17;4.78;;;1.60;;
33188;SDS011;52601;53.070;10.600;2023-08-17T00:52:03;4.13;;;1.77;;
33188;SDS011;52601;53.070;10.600;2023-08-17T00:54:51;4.85;;;1.50;;
33188;SDS011;52601;53.070;10.600;2023-08-17T00:57:37;5.40;;;1.45;;
33188;SDS011;52601;53.070;10.600;2023-08-17T01:00:22;6.28;;;1.50;;
33188;SDS011;52601;53.070;10.600;2023-08-17T01:03:12;4.93;;;1.70;;
33188;SDS011;52601;53.070;10.600;2023-08-17T01:05:58;3.17;;;1.58;;
33188;SDS011;52601;53.070;10.600;2023-08-17T01:08:44;5.63;;;1.83;;
33188;SDS011;52601;53.070;10.600;2023-08-17T01:11:37;6.53;;;1.70;;
33188;SDS011;52601;53.070;10.600;2023-08-17T01:14:37;3.42;;;1.25;;
33188;SDS011;52601;53.070;10.600;2023-08-17T01:17:32;3.60;;;1.45;;
33188;SDS011;52601;53.070;10.600;2023-08-17T01:20:23;2.80;;;1.30;;
33188;SDS011;52601;53.070;10.600;2023-08-17T01:25:55;5.40;;;1.58;;
33188;SDS011;52601;53.070;10.600;2023-08-17T01:28:43;6.47;;;1.90;;
33188;SDS011;52601;53.070;10.600;2023-08-17T01:31:31;4.40;;;1.77;;
33188;SDS011;52601;53.070;10.600;2023-08-17T01:34:25;2.92;;;1.23;;
33188;SDS011;52601;53.070;10.600;2023-08-17T01:37:15;2.92;;;1.40;;
33188;SDS011;52601;53.070;10.600;2023-08-17T01:40:06;5.55;;;1.60;;
33188;SDS011;52601;53.070;10.600;2023-08-17T01:42:54;3.63;;;1.60;;
33188;SDS011;52601;53.070;10.600;2023-08-17T01:45:41;7.28;;;1.60;;
33188;SDS011;52601;53.070;10.600;2023-08-17T01:48:26;3.60;;;1.50;;
33188;SDS011;52601;53.070;10.600;2023-08-17T01:51:15;3.63;;;1.40;;
33188;SDS011;52601;53.070;10.600;2023-08-17T01:54:03;5.63;;;1.40;;
33188;SDS011;52601;53.070;10.600;2023-08-17T01:56:49;4.45;;;1.63;;
33188;SDS011;52601;53.070;10.600;2023-08-17T01:59:35;3.20;;;1.23;;
33188;SDS011;52601;53.070;10.600;2023-08-17T02:02:20;3.97;;;1.37;;
33188;SDS011;52601;53.070;10.600;2023-08-17T02:05:07;3.55;;;0.98;;
33188;SDS011;52601;53.070;10.600;2023-08-17T02:07:53;5.95;;;1.65;;
33188;SDS011;52601;53.070;10.600;2023-08-17T02:10:38;4.53;;;1.58;;
33188;SDS011;52601;53.070;10.600;2023-08-17T02:13:24;8.85;;;1.88;;
33188;SDS011;52601;53.070;10.600;2023-08-17T02:16:10;2.13;;;1.10;;
33188;SDS011;52601;53.070;10.600;2023-08-17T02:18:56;6.22;;;1.50;;
33188;SDS011;52601;53.070;10.600;2023-08-17T02:21:41;2.43;;;1.50;;
33188;SDS011;52601;53.070;10.600;2023-08-17T02:24:27;5.93;;;1.70;;
33188;SDS011;52601;53.070;10.600;2023-08-17T02:27:13;4.33;;;1.57;;
33188;SDS011;52601;53.070;10.600;2023-08-17T02:29:59;3.50;;;1.48;;
33188;SDS011;52601;53.070;10.600;2023-08-17T02:49:17;24.23;;;3.38;;
33188;SDS011;52601;53.070;10.600;2023-08-17T02:52:04;13.80;;;3.20;;
33188;SDS011;52601;53.070;10.600;2023-08-17T02:54:50;20.60;;;3.47;;
33188;SDS011;52601;53.070;10.600;2023-08-17T02:57:35;8.63;;;2.72;;
33188;SDS011;52601;53.070;10.600;2023-08-17T03:00:21;8.93;;;2.78;;
33188;SDS011;52601;53.070;10.600;2023-08-17T03:03:07;9.68;;;3.13;;
33188;SDS011;52601;53.070;10.600;2023-08-17T03:05:52;8.63;;;3.23;;
33188;SDS011;52601;53.070;10.600;2023-08-17T03:08:38;10.60;;;4.40;;
33188;SDS011;52601;53.070;10.600;2023-08-17T03:11:23;61.13;;;6.78;;
33188;SDS011;52601;53.070;10.600;2023-08-17T03:14:09;7.93;;;3.10;;
33188;SDS011;52601;53.070;10.600;2023-08-17T03:16:55;11.87;;;3.97;;
